Southport Airport
CYPG : now visible

Airfield :











YOU CAN JOIN US ON...

 
LOGIN :

Register | Disclaimer

   EN    FR    IT 

 









Legend :    VFR   Marginal VFR   IFR   Intensive IFR   Very Intensive IFR
Visi :
Ceiling :
>= 8 km
>= 3000ft
5 to 8 km
1000 to 3000 ft
1500m to 5 km
500 to 1000 ft
800 to 1500m
200 to 500 ft
< 800m
< 200 ft
Symbols :   Thunderstorms  Fog  Heavy snow  Heavy precipitations  Wind > 20 kt






- Airport Elevation : 885 ft
- IATA code : YPG


CYPG - Southport

CURRENT METAR :
  • 041300Z 29005KT 2SM BR FEW005 SCT090 BKN130 11/11 A3005 RMK SF1AC3AC3 SLP181

EXPIRED METARs :
  • 041200Z 30005KT 2SM BR FEW002 BKN035 BKN093 11/11 A3005 RMK SF2SC3AC1 SLP181
  • 041120Z 30005KT 1 1/2SM BR SCT002 BKN090 11/11 A3005 RMK FG2SF2AC1 SLP181
  • 041100Z 32005KT 3/4SM BR SKC 11/11 A3005 RMK FG4 FST OBS SLP180

TAF AMD TAF CYPG
Valid from the 04 at 12:00 until the 05 at 00:00 UTC


041206Z 0412/0424 32005KT 2SM BR SCT002 BKN030
BECMG 0412/0414 P6SM NSW SCT030 BKN090 RMK NXT FCST BY 041800Z
CZWG FIR / North America



MET'MAP, your aeronautical weather chart ! - Copyright ORBIFLY December 2007 - Disclaimer

ORBIFLY MET'MAP TEAM :

Programming & Development : Alexandra Zaïnal
Original concept : Baudouin d'Aumeries
Technical & hardware support : Manuel Goepfert
Assistance : Marc-Olivier Méhu




SOURCES & CREDITS :

   NOAA       Earth
Advisory